Detall de PIREP

Printer-friendly versionPDF version

[2012/01/31 09:21:00]
Flight IATA:CT2111
Pilot Number:041
Company ICAO:CAT
Aircraft Type:F70/E
PAX:35
Aircraft Registration:DA
Departing Airport: LEST
Destination Airport: LEVC
Alternate Airport:LEPA
Online: VATSIM
Route:FORNO UN733 ZMR UL155 KALMA UH100 CJN UN733 CLS
Flight Level:F280
No Slew and time accel
No pause
Crash detect
Detect pilot in Cockpit between each 30 and 45 minutes
09:21 Zero fuel Weight: 76997 Lbs, Fuel Weight: 16953 Lbs
09:21 VATSIM:LEST 310900Z 16003KT 130V260 4000 VCFG BKN038 04/04 Q1023 TEMPO 0300 FG
09:21 VATSIM:LEVC 310900Z 26005KT CAVOK 07/M01 Q1021 NOSIG
09:21 VOICE CATALONIAN
09:24 Parking Brakes off
09:32 Take-off
09:32 Take off Weight: 93555 Lbs
09:32 Wind: 136º @ 004 Knots Heading: 165º
09:32 POS N42º 53´ 42´´ W008º 24´ 52´´
09:32 Gear Up: 152 Knots
09:32 Flaps:2 at 152 Knots
09:32 Flaps:1 at 155 Knots
09:32 Flaps:0 at 149 Knots
09:47 Wind:295º@024 Knots Heading: 124º Ground Speed: 404 Knots Altitude 23625 ft
09:52 TOC
09:52 Fuel Weight: 13974 Lb
10:02 Wind:302º@023 Knots Heading: 138º Ground Speed: 429 Knots Altitude 28287 ft
10:17 Wind:331º@027 Knots Heading: 088º Ground Speed: 419 Knots Altitude 28316 ft
10:28 TOD
10:28 Fuel Weight: 11099 Lb
10:32 Wind:332º@021 Knots Heading: 117º Ground Speed: 353 Knots Altitude 15557 ft
10:43 Flaps:1 at 219 Knots
10:43 Flaps:2 at 219 Knots
10:44 Flaps:3 at 200 Knots
10:44 Flaps:2 at 194 Knots
10:44 Flaps:3 at 194 Knots
10:44 Flaps:2 at 191 Knots
10:44 Flaps:3 at 190 Knots
10:44 Flaps:2 at 185 Knots
10:44 Flaps:3 at 185 Knots
10:44 Flaps:2 at 181 Knots
10:44 Flaps:3 at 180 Knots
10:45 Flaps:2 at 176 Knots
10:45 Flaps:3 at 175 Knots
10:45 Flaps:2 at 173 Knots
10:45 Flaps:3 at 172 Knots
10:45 Flaps:2 at 171 Knots
10:45 Flaps:3 at 171 Knots
10:45 Flaps:2 at 164 Knots
10:45 Flaps:3 at 163 Knots
10:45 Flaps:2 at 161 Knots
10:45 Flaps:3 at 160 Knots
10:45 Flaps:2 at 153 Knots
10:45 Flaps:3 at 153 Knots
10:45 Flaps:2 at 151 Knots
10:45 Flaps:3 at 151 Knots
10:45 Flaps:2 at 149 Knots
10:45 Flaps:3 at 149 Knots
10:45 Flaps:2 at 149 Knots
10:45 Flaps:3 at 149 Knots
10:46 Flaps:2 at 149 Knots
10:46 Flaps:3 at 149 Knots
10:46 Flaps:2 at 149 Knots
10:46 Flaps:3 at 148 Knots
10:46 Flaps:2 at 148 Knots
10:46 Flaps:3 at 148 Knots
10:46 Flaps:2 at 149 Knots
10:46 Flaps:3 at 149 Knots
10:46 Flaps:2 at 149 Knots
10:46 Flaps:3 at 149 Knots
10:46 Flaps:2 at 148 Knots
10:46 Flaps:3 at 148 Knots
10:46 Flaps:2 at 148 Knots
10:46 Flaps:3 at 148 Knots
10:46 Flaps:2 at 149 Knots
10:46 Flaps:3 at 149 Knots
10:46 Flaps:2 at 149 Knots
10:46 Flaps:3 at 149 Knots
10:46 Flaps:2 at 149 Knots
10:46 Flaps:3 at 150 Knots
10:47 Wind:253º@003 Knots Heading: 026º Ground Speed: 153 Knots Altitude 2057 ft
10:47 Flaps:2 at 149 Knots
10:47 Flaps:3 at 149 Knots
10:47 Flaps:2 at 150 Knots
10:47 Flaps:3 at 150 Knots
10:47 Flaps:2 at 150 Knots
10:47 Flaps:3 at 149 Knots
10:47 Flaps:2 at 150 Knots
10:47 Flaps:3 at 150 Knots
10:47 Flaps:2 at 147 Knots
10:47 Gear Down: 147 Knots
10:47 Flaps:3 at 147 Knots
10:48 Flaps:2 at 140 Knots
10:48 Flaps:3 at 140 Knots
10:48 Flaps:2 at 141 Knots
10:48 Flaps:3 at 140 Knots
10:48 Flaps:2 at 143 Knots
10:48 Flaps:3 at 143 Knots
10:48 Flaps:2 at 142 Knots
10:48 Flaps:3 at 141 Knots
10:48 Flaps:2 at 142 Knots
10:48 Flaps:3 at 142 Knots
10:48 Flaps:4 at 140 Knots
10:49 TouchDown:Rate -309 ft/min Speed: 118 Knots
10:49 Flaps:0 at 90 Knots
10:50 VATSIM:LEVC 311030Z 24008KT CAVOK 13/M01 Q1020 NOSIG
10:50 Land
10:50 Wind:253º@003 Knots
10:50 Heading: 298º
10:50 Flight Duration: 01:18
10:50 Landing Weight: 87185 Lbs
10:50 POS N39º 29´ 20´´ W000º 28´ 52´´
10:52 Parking brakes on
10:52 Block to Block Duration: 01:28
10:52 Final Fuel: 10081 Lbls
10:52 Spent Fuel: 6871 Lbls
10:52 Flight Length: 464 NM
10:52 TOD Land Length: 93 NM

Exportar CSV

Powered by Drupal - Modified by Danger4k